sensor_id;sensor_type;location;lat;lon;timestamp;P1;durP1;ratioP1;P2;durP2;ratioP2
10412;SDS011;5252;42.602;23.386;2022-10-16T00:00:05;7.22;;;6.20;;
10412;SDS011;5252;42.602;23.386;2022-10-16T00:02:32;7.18;;;6.25;;
10412;SDS011;5252;42.602;23.386;2022-10-16T00:04:58;7.43;;;6.63;;
10412;SDS011;5252;42.602;23.386;2022-10-16T00:07:25;7.55;;;6.82;;
10412;SDS011;5252;42.602;23.386;2022-10-16T00:09:51;7.65;;;6.95;;
10412;SDS011;5252;42.602;23.386;2022-10-16T00:12:18;7.43;;;6.65;;
10412;SDS011;5252;42.602;23.386;2022-10-16T00:14:44;7.95;;;7.13;;
10412;SDS011;5252;42.602;23.386;2022-10-16T00:17:12;9.45;;;7.18;;
10412;SDS011;5252;42.602;23.386;2022-10-16T00:19:39;8.40;;;7.13;;
10412;SDS011;5252;42.602;23.386;2022-10-16T00:22:05;8.45;;;7.53;;
10412;SDS011;5252;42.602;23.386;2022-10-16T00:24:32;8.02;;;7.25;;
10412;SDS011;5252;42.602;23.386;2022-10-16T00:26:58;8.13;;;7.43;;
10412;SDS011;5252;42.602;23.386;2022-10-16T00:29:25;9.00;;;7.78;;
10412;SDS011;5252;42.602;23.386;2022-10-16T00:31:51;8.35;;;7.43;;
10412;SDS011;5252;42.602;23.386;2022-10-16T00:34:19;8.40;;;7.70;;
10412;SDS011;5252;42.602;23.386;2022-10-16T00:36:46;8.82;;;8.02;;
10412;SDS011;5252;42.602;23.386;2022-10-16T00:39:12;8.77;;;7.97;;
10412;SDS011;5252;42.602;23.386;2022-10-16T00:41:39;8.43;;;7.63;;
10412;SDS011;5252;42.602;23.386;2022-10-16T00:46:47;8.20;;;7.40;;
10412;SDS011;5252;42.602;23.386;2022-10-16T00:49:14;7.93;;;7.30;;
10412;SDS011;5252;42.602;23.386;2022-10-16T00:51:43;8.50;;;7.70;;
10412;SDS011;5252;42.602;23.386;2022-10-16T00:54:11;9.15;;;8.27;;
10412;SDS011;5252;42.602;23.386;2022-10-16T00:56:39;9.20;;;8.30;;
10412;SDS011;5252;42.602;23.386;2022-10-16T00:59:07;9.38;;;8.48;;
10412;SDS011;5252;42.602;23.386;2022-10-16T01:01:36;9.88;;;8.90;;
10412;SDS011;5252;42.602;23.386;2022-10-16T01:04:03;10.63;;;9.25;;
10412;SDS011;5252;42.602;23.386;2022-10-16T01:06:31;9.98;;;9.15;;
10412;SDS011;5252;42.602;23.386;2022-10-16T01:09:09;11.75;;;9.98;;
10412;SDS011;5252;42.602;23.386;2022-10-16T01:11:38;10.50;;;9.50;;
10412;SDS011;5252;42.602;23.386;2022-10-16T01:14:09;11.00;;;10.02;;
10412;SDS011;5252;42.602;23.386;2022-10-16T01:16:39;10.55;;;9.48;;
10412;SDS011;5252;42.602;23.386;2022-10-16T01:19:08;10.52;;;9.52;;
10412;SDS011;5252;42.602;23.386;2022-10-16T01:21:36;9.85;;;8.95;;
10412;SDS011;5252;42.602;23.386;2022-10-16T01:24:08;10.52;;;9.52;;
10412;SDS011;5252;42.602;23.386;2022-10-16T01:26:42;10.05;;;9.05;;
10412;SDS011;5252;42.602;23.386;2022-10-16T01:29:14;9.52;;;8.70;;
10412;SDS011;5252;42.602;23.386;2022-10-16T01:31:44;10.45;;;9.35;;
10412;SDS011;5252;42.602;23.386;2022-10-16T01:34:15;10.25;;;9.30;;
10412;SDS011;5252;42.602;23.386;2022-10-16T01:36:45;10.40;;;9.32;;
10412;SDS011;5252;42.602;23.386;2022-10-16T01:39:13;10.32;;;9.10;;
10412;SDS011;5252;42.602;23.386;2022-10-16T01:41:41;10.15;;;9.18;;
10412;SDS011;5252;42.602;23.386;2022-10-16T01:44:10;9.57;;;8.68;;
10412;SDS011;5252;42.602;23.386;2022-10-16T01:46:40;10.30;;;9.30;;
10412;SDS011;5252;42.602;23.386;2022-10-16T01:49:07;11.27;;;10.32;;
10412;SDS011;5252;42.602;23.386;2022-10-16T01:51:35;9.93;;;8.93;;
10412;SDS011;5252;42.602;23.386;2022-10-16T01:54:02;10.13;;;9.23;;
10412;SDS011;5252;42.602;23.386;2022-10-16T01:56:31;11.65;;;10.57;;
10412;SDS011;5252;42.602;23.386;2022-10-16T01:58:58;9.48;;;8.57;;
10412;SDS011;5252;42.602;23.386;2022-10-16T02:01:26;9.15;;;8.15;;
10412;SDS011;5252;42.602;23.386;2022-10-16T02:03:57;9.02;;;8.13;;
10412;SDS011;5252;42.602;23.386;2022-10-16T02:06:25;8.77;;;7.97;;
10412;SDS011;5252;42.602;23.386;2022-10-16T02:08:51;9.27;;;8.38;;
10412;SDS011;5252;42.602;23.386;2022-10-16T02:11:18;9.45;;;8.55;;
10412;SDS011;5252;42.602;23.386;2022-10-16T02:13:45;8.43;;;7.63;;
10412;SDS011;5252;42.602;23.386;2022-10-16T02:16:13;7.80;;;7.10;;
10412;SDS011;5252;42.602;23.386;2022-10-16T02:18:39;8.88;;;8.07;;
10412;SDS011;5252;42.602;23.386;2022-10-16T02:21:10;9.00;;;7.85;;
10412;SDS011;5252;42.602;23.386;2022-10-16T02:23:40;10.23;;;8.50;;
10412;SDS011;5252;42.602;23.386;2022-10-16T02:26:12;9.25;;;7.90;;
10412;SDS011;5252;42.602;23.386;2022-10-16T02:28:40;8.57;;;7.43;;
10412;SDS011;5252;42.602;23.386;2022-10-16T02:31:08;8.50;;;7.30;;
10412;SDS011;5252;42.602;23.386;2022-10-16T02:33:36;7.90;;;7.10;;
10412;SDS011;5252;42.602;23.386;2022-10-16T02:36:04;8.10;;;7.40;;
10412;SDS011;5252;42.602;23.386;2022-10-16T02:38:32;7.63;;;6.80;;
10412;SDS011;5252;42.602;23.386;2022-10-16T02:40:59;8.02;;;7.30;;
10412;SDS011;5252;42.602;23.386;2022-10-16T02:43:25;8.30;;;7.60;;
10412;SDS011;5252;42.602;23.386;2022-10-16T02:45:52;8.10;;;7.30;;
10412;SDS011;5252;42.602;23.386;2022-10-16T02:48:19;8.15;;;7.35;;
10412;SDS011;5252;42.602;23.386;2022-10-16T02:50:45;10.57;;;7.85;;
10412;SDS011;5252;42.602;23.386;2022-10-16T02:53:12;8.20;;;7.53;;
10412;SDS011;5252;42.602;23.386;2022-10-16T02:55:40;8.05;;;7.35;;
10412;SDS011;5252;42.602;23.386;2022-10-16T02:58:07;8.38;;;7.57;;
10412;SDS011;5252;42.602;23.386;2022-10-16T03:00:33;9.20;;;7.80;;
10412;SDS011;5252;42.602;23.386;2022-10-16T03:03:00;8.68;;;7.80;;
10412;SDS011;5252;42.602;23.386;2022-10-16T03:05:26;7.95;;;7.25;;
10412;SDS011;5252;42.602;23.386;2022-10-16T03:07:53;7.75;;;7.05;;
10412;SDS011;5252;42.602;23.386;2022-10-16T03:10:19;8.00;;;7.20;;
10412;SDS011;5252;42.602;23.386;2022-10-16T03:12:47;9.40;;;7.93;;
10412;SDS011;5252;42.602;23.386;2022-10-16T03:15:14;8.85;;;8.05;;
10412;SDS011;5252;42.602;23.386;2022-10-16T03:17:40;8.63;;;7.82;;
10412;SDS011;5252;42.602;23.386;2022-10-16T03:20:08;8.85;;;7.85;;
10412;SDS011;5252;42.602;23.386;2022-10-16T03:22:35;9.48;;;8.48;;
10412;SDS011;5252;42.602;23.386;2022-10-16T03:25:01;8.85;;;8.00;;
10412;SDS011;5252;42.602;23.386;2022-10-16T03:27:28;9.25;;;8.43;;
10412;SDS011;5252;42.602;23.386;2022-10-16T03:29:56;8.70;;;7.90;;
10412;SDS011;5252;42.602;23.386;2022-10-16T03:32:22;15.02;;;13.73;;
10412;SDS011;5252;42.602;23.386;2022-10-16T03:34:50;13.98;;;12.68;;
10412;SDS011;5252;42.602;23.386;2022-10-16T03:37:18;12.55;;;11.35;;
10412;SDS011;5252;42.602;23.386;2022-10-16T03:39:44;10.07;;;9.13;;
10412;SDS011;5252;42.602;23.386;2022-10-16T03:42:11;10.05;;;9.05;;
10412;SDS011;5252;42.602;23.386;2022-10-16T03:44:37;9.90;;;9.00;;
10412;SDS011;5252;42.602;23.386;2022-10-16T03:47:05;10.70;;;9.60;;
10412;SDS011;5252;42.602;23.386;2022-10-16T03:49:32;11.05;;;10.05;;
10412;SDS011;5252;42.602;23.386;2022-10-16T03:51:58;11.60;;;10.38;;
10412;SDS011;5252;42.602;23.386;2022-10-16T03:54:25;11.82;;;10.73;;
10412;SDS011;5252;42.602;23.386;2022-10-16T03:56:51;12.32;;;11.02;;
10412;SDS011;5252;42.602;23.386;2022-10-16T03:59:18;11.48;;;10.38;;
10412;SDS011;5252;42.602;23.386;2022-10-16T04:01:44;11.52;;;10.50;;
10412;SDS011;5252;42.602;23.386;2022-10-16T04:04:12;11.88;;;10.77;;
10412;SDS011;5252;42.602;23.386;2022-10-16T04:06:39;12.13;;;10.95;;
10412;SDS011;5252;42.602;23.386;2022-10-16T04:09:05;12.00;;;10.82;;
10412;SDS011;5252;42.602;23.386;2022-10-16T04:11:32;12.10;;;10.82;;
10412;SDS011;5252;42.602;23.386;2022-10-16T04:13:59;11.27;;;10.27;;
10412;SDS011;5252;42.602;23.386;2022-10-16T04:16:25;11.80;;;10.80;;
10412;SDS011;5252;42.602;23.386;2022-10-16T04:18:52;11.52;;;10.38;;
10412;SDS011;5252;42.602;23.386;2022-10-16T04:21:20;12.57;;;11.32;;
10412;SDS011;5252;42.602;23.386;2022-10-16T04:23:47;12.25;;;11.07;;
10412;SDS011;5252;42.602;23.386;2022-10-16T04:26:14;13.98;;;12.75;;
10412;SDS011;5252;42.602;23.386;2022-10-16T04:28:41;11.38;;;10.30;;
10412;SDS011;5252;42.602;23.386;2022-10-16T04:31:07;12.02;;;10.95;;
10412;SDS011;5252;42.602;23.386;2022-10-16T04:33:34;11.38;;;10.30;;
10412;SDS011;5252;42.602;23.386;2022-10-16T04:36:00;12.25;;;10.82;;
10412;SDS011;5252;42.602;23.386;2022-10-16T04:38:29;11.75;;;10.55;;
10412;SDS011;5252;42.602;23.386;2022-10-16T04:40:55;12.25;;;11.15;;
10412;SDS011;5252;42.602;23.386;2022-10-16T04:43:22;13.43;;;12.23;;
10412;SDS011;5252;42.602;23.386;2022-10-16T04:45:49;12.55;;;11.55;;
10412;SDS011;5252;42.602;23.386;2022-10-16T04:48:16;12.45;;;11.35;;
10412;SDS011;5252;42.602;23.386;2022-10-16T04:50:43;13.65;;;12.35;;
10412;SDS011;5252;42.602;23.386;2022-10-16T04:53:09;13.55;;;12.35;;
10412;SDS011;5252;42.602;23.386;2022-10-16T04:55:37;14.52;;;13.23;;
10412;SDS011;5252;42.602;23.386;2022-10-16T04:58:04;13.82;;;12.60;;
10412;SDS011;5252;42.602;23.386;2022-10-16T05:00:31;12.77;;;11.63;;
10412;SDS011;5252;42.602;23.386;2022-10-16T05:02:57;12.90;;;11.70;;
10412;SDS011;5252;42.602;23.386;2022-10-16T05:05:25;15.10;;;13.70;;
10412;SDS011;5252;42.602;23.386;2022-10-16T05:07:52;15.80;;;14.20;;
10412;SDS011;5252;42.602;23.386;2022-10-16T05:10:18;15.90;;;13.23;;
10412;SDS011;5252;42.602;23.386;2022-10-16T05:12:47;13.73;;;12.32;;
10412;SDS011;5252;42.602;23.386;2022-10-16T05:15:13;14.77;;;13.43;;
10412;SDS011;5252;42.602;23.386;2022-10-16T05:17:40;16.38;;;13.88;;
10412;SDS011;5252;42.602;23.386;2022-10-16T05:20:07;15.10;;;13.68;;
10412;SDS011;5252;42.602;23.386;2022-10-16T05:22:33;14.52;;;13.02;;
10412;SDS011;5252;42.602;23.386;2022-10-16T05:25:00;18.05;;;16.35;;
10412;SDS011;5252;42.602;23.386;2022-10-16T05:27:26;15.98;;;14.38;;
10412;SDS011;5252;42.602;23.386;2022-10-16T05:29:54;15.98;;;14.40;;
10412;SDS011;5252;42.602;23.386;2022-10-16T05:32:21;15.23;;;13.63;;
10412;SDS011;5252;42.602;23.386;2022-10-16T05:34:47;17.70;;;15.85;;
10412;SDS011;5252;42.602;23.386;2022-10-16T05:37:14;17.10;;;15.50;;
10412;SDS011;5252;42.602;23.386;2022-10-16T05:39:40;16.67;;;15.07;;
10412;SDS011;5252;42.602;23.386;2022-10-16T05:42:07;16.13;;;14.27;;
10412;SDS011;5252;42.602;23.386;2022-10-16T05:44:33;15.55;;;14.05;;
10412;SDS011;5252;42.602;23.386;2022-10-16T05:47:01;15.60;;;14.07;;
10412;SDS011;5252;42.602;23.386;2022-10-16T05:49:28;16.08;;;14.48;;
10412;SDS011;5252;42.602;23.386;2022-10-16T05:51:54;22.08;;;17.17;;
10412;SDS011;5252;42.602;23.386;2022-10-16T05:54:21;26.15;;;23.38;;
10412;SDS011;5252;42.602;23.386;2022-10-16T05:56:48;33.60;;;30.13;;
10412;SDS011;5252;42.602;23.386;2022-10-16T05:59:14;33.25;;;29.95;;
10412;SDS011;5252;42.602;23.386;2022-10-16T06:01:41;31.75;;;28.35;;
10412;SDS011;5252;42.602;23.386;2022-10-16T06:04:09;30.63;;;27.42;;
10412;SDS011;5252;42.602;23.386;2022-10-16T06:06:35;28.75;;;25.80;;
10412;SDS011;5252;42.602;23.386;2022-10-16T06:09:02;40.47;;;36.38;;
10412;SDS011;5252;42.602;23.386;2022-10-16T06:11:30;27.40;;;24.67;;
10412;SDS011;5252;42.602;23.386;2022-10-16T06:13:57;26.63;;;23.95;;
10412;SDS011;5252;42.602;23.386;2022-10-16T06:16:25;21.08;;;19.08;;
10412;SDS011;5252;42.602;23.386;2022-10-16T06:18:52;19.58;;;17.75;;
10412;SDS011;5252;42.602;23.386;2022-10-16T06:21:21;24.55;;;19.73;;
10412;SDS011;5252;42.602;23.386;2022-10-16T06:23:47;27.50;;;24.63;;
10412;SDS011;5252;42.602;23.386;2022-10-16T06:26:15;24.33;;;21.50;;
10412;SDS011;5252;42.602;23.386;2022-10-16T06:28:41;19.33;;;17.30;;
10412;SDS011;5252;42.602;23.386;2022-10-16T06:31:09;14.43;;;12.55;;
10412;SDS011;5252;42.602;23.386;2022-10-16T06:33:36;10.25;;;9.20;;
10412;SDS011;5252;42.602;23.386;2022-10-16T07:33:59;7.43;;;6.35;;
10412;SDS011;5252;42.602;23.386;2022-10-16T07:36:26;6.88;;;6.13;;
10412;SDS011;5252;42.602;23.386;2022-10-16T07:41:55;8.35;;;6.70;;
10412;SDS011;5252;42.602;23.386;2022-10-16T07:44:22;7.07;;;6.43;;
10412;SDS011;5252;42.602;23.386;2022-10-16T07:46:48;8.32;;;6.10;;
10412;SDS011;5252;42.602;23.386;2022-10-16T07:49:16;7.93;;;7.13;;
10412;SDS011;5252;42.602;23.386;2022-10-16T07:51:43;11.68;;;10.57;;
10412;SDS011;5252;42.602;23.386;2022-10-16T07:54:09;10.82;;;9.48;;
10412;SDS011;5252;42.602;23.386;2022-10-16T07:56:36;10.90;;;9.80;;
10412;SDS011;5252;42.602;23.386;2022-10-16T07:59:02;9.98;;;8.55;;
10412;SDS011;5252;42.602;23.386;2022-10-16T08:01:29;12.63;;;11.40;;
10412;SDS011;5252;42.602;23.386;2022-10-16T08:03:55;6.63;;;6.03;;
10412;SDS011;5252;42.602;23.386;2022-10-16T08:06:23;7.97;;;5.68;;
10412;SDS011;5252;42.602;23.386;2022-10-16T08:08:50;10.38;;;9.13;;
10412;SDS011;5252;42.602;23.386;2022-10-16T08:11:16;9.23;;;8.23;;
10412;SDS011;5252;42.602;23.386;2022-10-16T08:13:43;11.30;;;10.05;;
10412;SDS011;5252;42.602;23.386;2022-10-16T08:16:10;8.20;;;6.80;;
10412;SDS011;5252;42.602;23.386;2022-10-16T08:18:37;8.68;;;6.50;;
10412;SDS011;5252;42.602;23.386;2022-10-16T08:21:04;12.10;;;9.70;;
10412;SDS011;5252;42.602;23.386;2022-10-16T08:23:32;11.38;;;7.90;;
10412;SDS011;5252;42.602;23.386;2022-10-16T08:26:01;10.60;;;8.77;;
10412;SDS011;5252;42.602;23.386;2022-10-16T08:28:28;9.77;;;7.68;;
10412;SDS011;5252;42.602;23.386;2022-10-16T08:30:55;12.43;;;9.93;;
10412;SDS011;5252;42.602;23.386;2022-10-16T08:33:22;11.25;;;10.05;;
10412;SDS011;5252;42.602;23.386;2022-10-16T08:35:51;12.95;;;10.75;;
10412;SDS011;5252;42.602;23.386;2022-10-16T08:38:18;12.02;;;10.73;;
10412;SDS011;5252;42.602;23.386;2022-10-16T08:40:46;9.15;;;6.70;;
10412;SDS011;5252;42.602;23.386;2022-10-16T08:46:06;7.28;;;5.60;;
10412;SDS011;5252;42.602;23.386;2022-10-16T08:48:40;7.57;;;5.40;;
10412;SDS011;5252;42.602;23.386;2022-10-16T08:51:10;9.88;;;6.32;;
10412;SDS011;5252;42.602;23.386;2022-10-16T08:53:40;8.07;;;7.00;;
10412;SDS011;5252;42.602;23.386;2022-10-16T08:56:09;9.57;;;7.03;;
10412;SDS011;5252;42.602;23.386;2022-10-16T08:58:36;24.17;;;16.65;;
10412;SDS011;5252;42.602;23.386;2022-10-16T09:01:03;15.63;;;9.88;;
10412;SDS011;5252;42.602;23.386;2022-10-16T09:03:38;12.95;;;9.68;;
10412;SDS011;5252;42.602;23.386;2022-10-16T09:06:16;8.93;;;5.60;;
10412;SDS011;5252;42.602;23.386;2022-10-16T09:08:46;6.50;;;5.03;;
10412;SDS011;5252;42.602;23.386;2022-10-16T09:11:20;5.75;;;4.50;;
10412;SDS011;5252;42.602;23.386;2022-10-16T09:13:51;5.53;;;4.35;;
10412;SDS011;5252;42.602;23.386;2022-10-16T09:16:22;5.00;;;4.50;;
10412;SDS011;5252;42.602;23.386;2022-10-16T09:18:52;4.13;;;3.70;;
10412;SDS011;5252;42.602;23.386;2022-10-16T09:21:21;5.18;;;4.47;;
10412;SDS011;5252;42.602;23.386;2022-10-16T09:23:49;11.23;;;4.78;;
10412;SDS011;5252;42.602;23.386;2022-10-16T09:26:16;4.80;;;3.45;;
10412;SDS011;5252;42.602;23.386;2022-10-16T09:28:46;4.40;;;4.00;;
10412;SDS011;5252;42.602;23.386;2022-10-16T09:31:13;5.63;;;3.83;;
10412;SDS011;5252;42.602;23.386;2022-10-16T09:33:41;4.45;;;3.10;;
10412;SDS011;5252;42.602;23.386;2022-10-16T09:36:08;5.15;;;3.33;;
10412;SDS011;5252;42.602;23.386;2022-10-16T09:38:35;4.43;;;3.67;;
10412;SDS011;5252;42.602;23.386;2022-10-16T09:41:03;3.63;;;2.60;;
10412;SDS011;5252;42.602;23.386;2022-10-16T09:43:39;3.28;;;2.97;;
10412;SDS011;5252;42.602;23.386;2022-10-16T09:46:19;5.90;;;3.75;;
10412;SDS011;5252;42.602;23.386;2022-10-16T09:48:48;5.30;;;3.13;;
10412;SDS011;5252;42.602;23.386;2022-10-16T09:51:16;5.25;;;2.95;;
10412;SDS011;5252;42.602;23.386;2022-10-16T09:53:45;3.80;;;3.40;;
10412;SDS011;5252;42.602;23.386;2022-10-16T09:56:20;6.03;;;3.40;;
10412;SDS011;5252;42.602;23.386;2022-10-16T09:58:49;4.78;;;3.50;;
10412;SDS011;5252;42.602;23.386;2022-10-16T10:01:17;3.45;;;2.58;;
10412;SDS011;5252;42.602;23.386;2022-10-16T10:03:45;3.88;;;2.85;;
10412;SDS011;5252;42.602;23.386;2022-10-16T10:06:16;4.20;;;3.03;;
10412;SDS011;5252;42.602;23.386;2022-10-16T10:08:53;3.92;;;3.17;;
10412;SDS011;5252;42.602;23.386;2022-10-16T10:14:05;3.75;;;3.03;;
10412;SDS011;5252;42.602;23.386;2022-10-16T10:16:33;3.83;;;3.13;;
10412;SDS011;5252;42.602;23.386;2022-10-16T10:19:00;3.20;;;2.90;;
10412;SDS011;5252;42.602;23.386;2022-10-16T10:21:26;4.63;;;3.25;;
10412;SDS011;5252;42.602;23.386;2022-10-16T10:23:55;4.05;;;2.92;;
10412;SDS011;5252;42.602;23.386;2022-10-16T10:26:22;3.10;;;2.80;;
10412;SDS011;5252;42.602;23.386;2022-10-16T10:28:53;4.40;;;3.88;;
10412;SDS011;5252;42.602;23.386;2022-10-16T10:31:24;3.80;;;3.40;;
10412;SDS011;5252;42.602;23.386;2022-10-16T10:33:55;4.22;;;3.20;;
10412;SDS011;5252;42.602;23.386;2022-10-16T10:36:27;3.58;;;3.25;;
10412;SDS011;5252;42.602;23.386;2022-10-16T10:38:56;4.32;;;3.45;;
10412;SDS011;5252;42.602;23.386;2022-10-16T10:41:33;3.40;;;2.88;;
10412;SDS011;5252;42.602;23.386;2022-10-16T10:44:07;4.22;;;3.70;;
10412;SDS011;5252;42.602;23.386;2022-10-16T10:46:38;5.93;;;4.80;;
10412;SDS011;5252;42.602;23.386;2022-10-16T10:49:15;4.57;;;3.70;;
10412;SDS011;5252;42.602;23.386;2022-10-16T10:51:45;3.38;;;3.08;;
10412;SDS011;5252;42.602;23.386;2022-10-16T10:54:17;4.40;;;3.20;;
10412;SDS011;5252;42.602;23.386;2022-10-16T10:56:51;6.03;;;3.45;;
10412;SDS011;5252;42.602;23.386;2022-10-16T11:02:10;3.97;;;3.17;;
10412;SDS011;5252;42.602;23.386;2022-10-16T11:07:23;7.22;;;3.67;;
10412;SDS011;5252;42.602;23.386;2022-10-16T11:09:53;4.72;;;3.92;;
10412;SDS011;5252;42.602;23.386;2022-10-16T11:12:22;3.97;;;3.20;;
10412;SDS011;5252;42.602;23.386;2022-10-16T11:14:51;3.67;;;3.22;;
10412;SDS011;5252;42.602;23.386;2022-10-16T11:17:23;3.65;;;3.00;;
10412;SDS011;5252;42.602;23.386;2022-10-16T11:19:52;3.75;;;2.72;;
10412;SDS011;5252;42.602;23.386;2022-10-16T11:22:20;4.05;;;2.63;;
10412;SDS011;5252;42.602;23.386;2022-10-16T11:24:51;3.13;;;2.50;;
10412;SDS011;5252;42.602;23.386;2022-10-16T11:27:19;2.83;;;2.10;;
10412;SDS011;5252;42.602;23.386;2022-10-16T11:29:49;2.50;;;2.30;;
10412;SDS011;5252;42.602;23.386;2022-10-16T11:32:19;3.00;;;2.70;;
10412;SDS011;5252;42.602;23.386;2022-10-16T11:34:48;3.20;;;2.03;;
10412;SDS011;5252;42.602;23.386;2022-10-16T11:37:17;3.00;;;2.30;;
10412;SDS011;5252;42.602;23.386;2022-10-16T11:39:46;3.72;;;2.10;;
10412;SDS011;5252;42.602;23.386;2022-10-16T11:42:16;18.92;;;13.60;;
10412;SDS011;5252;42.602;23.386;2022-10-16T11:44:48;6.53;;;4.63;;
10412;SDS011;5252;42.602;23.386;2022-10-16T11:47:24;5.00;;;2.25;;
10412;SDS011;5252;42.602;23.386;2022-10-16T11:49:53;2.75;;;1.60;;
10412;SDS011;5252;42.602;23.386;2022-10-16T11:52:23;1.70;;;1.60;;
10412;SDS011;5252;42.602;23.386;2022-10-16T11:54:52;1.92;;;1.70;;
10412;SDS011;5252;42.602;23.386;2022-10-16T11:57:22;3.67;;;1.83;;
10412;SDS011;5252;42.602;23.386;2022-10-16T11:59:51;2.75;;;1.90;;
10412;SDS011;5252;42.602;23.386;2022-10-16T12:02:33;2.15;;;1.63;;
10412;SDS011;5252;42.602;23.386;2022-10-16T12:05:06;1.80;;;1.60;;
10412;SDS011;5252;42.602;23.386;2022-10-16T12:07:36;2.13;;;1.60;;
10412;SDS011;5252;42.602;23.386;2022-10-16T12:10:10;2.22;;;1.80;;
10412;SDS011;5252;42.602;23.386;2022-10-16T12:12:39;2.53;;;1.75;;
10412;SDS011;5252;42.602;23.386;2022-10-16T12:15:18;2.10;;;1.70;;
10412;SDS011;5252;42.602;23.386;2022-10-16T12:17:45;2.40;;;1.70;;
10412;SDS011;5252;42.602;23.386;2022-10-16T12:20:22;3.25;;;1.88;;
10412;SDS011;5252;42.602;23.386;2022-10-16T12:22:51;2.15;;;1.42;;
10412;SDS011;5252;42.602;23.386;2022-10-16T12:25:21;3.42;;;1.70;;
10412;SDS011;5252;42.602;23.386;2022-10-16T12:27:55;1.50;;;1.40;;
10412;SDS011;5252;42.602;23.386;2022-10-16T12:30:22;2.83;;;1.73;;
10412;SDS011;5252;42.602;23.386;2022-10-16T12:32:53;2.70;;;1.63;;
10412;SDS011;5252;42.602;23.386;2022-10-16T12:35:20;2.38;;;1.63;;
10412;SDS011;5252;42.602;23.386;2022-10-16T12:37:48;2.33;;;1.50;;
10412;SDS011;5252;42.602;23.386;2022-10-16T12:40:16;2.00;;;1.60;;
10412;SDS011;5252;42.602;23.386;2022-10-16T12:42:49;2.03;;;1.50;;
10412;SDS011;5252;42.602;23.386;2022-10-16T12:48:02;3.42;;;1.45;;
10412;SDS011;5252;42.602;23.386;2022-10-16T12:50:31;2.30;;;1.67;;
10412;SDS011;5252;42.602;23.386;2022-10-16T12:52:58;2.22;;;1.60;;
10412;SDS011;5252;42.602;23.386;2022-10-16T12:55:24;3.85;;;1.50;;
10412;SDS011;5252;42.602;23.386;2022-10-16T12:57:59;2.25;;;1.70;;
10412;SDS011;5252;42.602;23.386;2022-10-16T13:00:32;1.80;;;1.30;;
10412;SDS011;5252;42.602;23.386;2022-10-16T13:05:44;2.13;;;1.70;;
10412;SDS011;5252;42.602;23.386;2022-10-16T13:08:17;4.05;;;2.30;;
10412;SDS011;5252;42.602;23.386;2022-10-16T13:10:51;2.10;;;1.77;;
10412;SDS011;5252;42.602;23.386;2022-10-16T13:13:26;2.58;;;1.80;;
10412;SDS011;5252;42.602;23.386;2022-10-16T13:16:02;1.85;;;1.60;;
10412;SDS011;5252;42.602;23.386;2022-10-16T13:18:33;2.28;;;1.50;;
10412;SDS011;5252;42.602;23.386;2022-10-16T13:21:09;3.15;;;1.80;;
10412;SDS011;5252;42.602;23.386;2022-10-16T13:23:41;2.65;;;1.80;;
10412;SDS011;5252;42.602;23.386;2022-10-16T13:26:13;2.08;;;1.75;;
10412;SDS011;5252;42.602;23.386;2022-10-16T13:28:41;1.92;;;1.50;;
10412;SDS011;5252;42.602;23.386;2022-10-16T13:31:10;2.03;;;1.50;;
10412;SDS011;5252;42.602;23.386;2022-10-16T13:33:40;2.67;;;1.60;;
10412;SDS011;5252;42.602;23.386;2022-10-16T13:36:19;2.60;;;1.80;;
10412;SDS011;5252;42.602;23.386;2022-10-16T13:38:46;2.75;;;1.60;;
10412;SDS011;5252;42.602;23.386;2022-10-16T13:41:14;2.00;;;1.80;;
10412;SDS011;5252;42.602;23.386;2022-10-16T13:43:43;1.95;;;1.73;;
10412;SDS011;5252;42.602;23.386;2022-10-16T13:46:12;2.28;;;1.60;;
10412;SDS011;5252;42.602;23.386;2022-10-16T13:48:39;2.53;;;2.00;;
10412;SDS011;5252;42.602;23.386;2022-10-16T13:51:06;2.67;;;2.03;;
10412;SDS011;5252;42.602;23.386;2022-10-16T13:53:35;3.15;;;1.80;;
10412;SDS011;5252;42.602;23.386;2022-10-16T13:56:03;2.33;;;1.90;;
10412;SDS011;5252;42.602;23.386;2022-10-16T13:58:30;2.45;;;1.60;;
10412;SDS011;5252;42.602;23.386;2022-10-16T14:00:58;2.50;;;2.03;;
10412;SDS011;5252;42.602;23.386;2022-10-16T14:03:25;3.05;;;1.83;;
10412;SDS011;5252;42.602;23.386;2022-10-16T14:05:53;3.13;;;2.22;;
10412;SDS011;5252;42.602;23.386;2022-10-16T14:08:20;3.17;;;1.73;;
10412;SDS011;5252;42.602;23.386;2022-10-16T14:10:50;4.03;;;1.88;;
10412;SDS011;5252;42.602;23.386;2022-10-16T14:13:18;4.05;;;1.98;;
10412;SDS011;5252;42.602;23.386;2022-10-16T14:15:49;2.38;;;1.70;;
10412;SDS011;5252;42.602;23.386;2022-10-16T14:18:17;2.22;;;1.70;;
10412;SDS011;5252;42.602;23.386;2022-10-16T14:20:45;3.03;;;1.80;;
10412;SDS011;5252;42.602;23.386;2022-10-16T14:23:22;5.32;;;1.85;;
10412;SDS011;5252;42.602;23.386;2022-10-16T14:25:53;2.42;;;1.90;;
10412;SDS011;5252;42.602;23.386;2022-10-16T14:28:20;3.53;;;1.67;;
10412;SDS011;5252;42.602;23.386;2022-10-16T14:30:50;2.28;;;2.03;;
10412;SDS011;5252;42.602;23.386;2022-10-16T14:33:21;5.00;;;2.30;;
10412;SDS011;5252;42.602;23.386;2022-10-16T14:35:58;6.90;;;2.47;;
10412;SDS011;5252;42.602;23.386;2022-10-16T14:38:25;3.15;;;2.10;;
10412;SDS011;5252;42.602;23.386;2022-10-16T14:40:54;4.05;;;1.90;;
10412;SDS011;5252;42.602;23.386;2022-10-16T14:43:26;10.18;;;3.92;;
10412;SDS011;5252;42.602;23.386;2022-10-16T14:45:55;7.25;;;2.60;;
10412;SDS011;5252;42.602;23.386;2022-10-16T14:48:22;6.00;;;2.33;;
10412;SDS011;5252;42.602;23.386;2022-10-16T14:50:49;6.45;;;2.47;;
10412;SDS011;5252;42.602;23.386;2022-10-16T14:53:15;3.65;;;1.90;;
10412;SDS011;5252;42.602;23.386;2022-10-16T14:55:42;4.10;;;2.10;;
10412;SDS011;5252;42.602;23.386;2022-10-16T14:58:11;4.82;;;2.35;;
10412;SDS011;5252;42.602;23.386;2022-10-16T15:00:40;3.08;;;2.08;;
10412;SDS011;5252;42.602;23.386;2022-10-16T15:03:06;5.32;;;3.30;;
10412;SDS011;5252;42.602;23.386;2022-10-16T15:05:33;4.13;;;2.92;;
10412;SDS011;5252;42.602;23.386;2022-10-16T15:07:59;5.03;;;2.42;;
10412;SDS011;5252;42.602;23.386;2022-10-16T15:10:27;6.13;;;3.63;;
10412;SDS011;5252;42.602;23.386;2022-10-16T15:12:54;14.93;;;9.23;;
10412;SDS011;5252;42.602;23.386;2022-10-16T15:15:31;27.13;;;21.83;;
10412;SDS011;5252;42.602;23.386;2022-10-16T15:17:58;9.02;;;5.75;;
10412;SDS011;5252;42.602;23.386;2022-10-16T15:20:26;13.27;;;8.90;;
10412;SDS011;5252;42.602;23.386;2022-10-16T15:22:53;8.77;;;4.72;;
10412;SDS011;5252;42.602;23.386;2022-10-16T15:25:26;5.22;;;3.17;;
10412;SDS011;5252;42.602;23.386;2022-10-16T15:27:53;5.00;;;3.53;;
10412;SDS011;5252;42.602;23.386;2022-10-16T15:30:20;10.95;;;5.60;;
10412;SDS011;5252;42.602;23.386;2022-10-16T15:32:48;6.88;;;5.00;;
10412;SDS011;5252;42.602;23.386;2022-10-16T15:35:15;11.43;;;8.15;;
10412;SDS011;5252;42.602;23.386;2022-10-16T15:37:41;9.63;;;7.57;;
10412;SDS011;5252;42.602;23.386;2022-10-16T15:40:09;9.27;;;7.65;;
10412;SDS011;5252;42.602;23.386;2022-10-16T15:42:35;11.23;;;7.50;;
10412;SDS011;5252;42.602;23.386;2022-10-16T15:45:02;11.55;;;7.68;;
10412;SDS011;5252;42.602;23.386;2022-10-16T15:47:29;12.63;;;8.77;;
10412;SDS011;5252;42.602;23.386;2022-10-16T15:49:57;13.82;;;10.45;;
10412;SDS011;5252;42.602;23.386;2022-10-16T15:52:24;12.48;;;9.63;;
10412;SDS011;5252;42.602;23.386;2022-10-16T15:54:51;8.68;;;7.25;;
10412;SDS011;5252;42.602;23.386;2022-10-16T15:57:17;6.70;;;5.28;;
10412;SDS011;5252;42.602;23.386;2022-10-16T15:59:44;8.10;;;5.95;;
10412;SDS011;5252;42.602;23.386;2022-10-16T16:02:10;12.20;;;8.00;;
10412;SDS011;5252;42.602;23.386;2022-10-16T16:04:37;11.45;;;8.60;;
10412;SDS011;5252;42.602;23.386;2022-10-16T16:07:05;10.05;;;8.55;;